Time;durP1;ratioP1;P1;durP2;ratioP2;P2;SDS_P1;SDS_P2;PMS_P1;PMS_P2;Temp;Humidity;BMP_temperature;BMP_pressure;BME280_temperature;BME280_humidity;BME280_pressure;Samples;Min_cycle;Max_cycle;Signal;HPM_P1;HPM_P2
2022/07/01 00:01:23;;;;;;;;;0.00;0.00;;;;;15.27;82.65;101196.94;5054123;28;45580;-75
2022/07/01 00:03:49;;;;;;;;;0.00;0.00;;;;;15.28;82.67;101213.84;5059441;28;45381;-74
2022/07/01 00:06:16;;;;;;;;;0.00;0.00;;;;;15.25;82.64;101209.72;5059318;28;45367;-74
2022/07/01 00:08:41;;;;;;;;;0.67;0.67;;;;;15.21;83.15;101210.28;5040925;28;47567;-74
2022/07/01 00:11:07;;;;;;;;;1.00;0.33;;;;;15.12;83.22;101196.22;5058991;28;45284;-75
2022/07/01 00:13:33;;;;;;;;;1.67;1.67;;;;;15.12;83.24;101210.41;5041282;28;45385;-75
2022/07/01 00:15:58;;;;;;;;;2.67;1.00;;;;;15.12;83.53;101206.94;5062194;28;45415;-75
2022/07/01 00:18:24;;;;;;;;;1.00;1.00;;;;;15.04;83.60;101207.88;5044621;28;46716;-75
2022/07/01 00:20:50;;;;;;;;;0.33;0.00;;;;;15.09;83.34;101210.00;5059319;28;45293;-75
2022/07/01 00:23:16;;;;;;;;;0.00;0.00;;;;;15.03;83.72;101206.25;5059177;28;45337;-75
2022/07/01 00:25:42;;;;;;;;;0.00;0.00;;;;;15.01;83.64;101213.63;5059235;28;45236;-75
2022/07/01 00:28:08;;;;;;;;;2.67;0.33;;;;;15.04;83.56;101215.06;5040783;28;46962;-74
2022/07/01 00:30:33;;;;;;;;;3.00;2.00;;;;;15.01;83.26;101219.81;5058863;28;45232;-75
2022/07/01 00:32:58;;;;;;;;;1.33;1.33;;;;;14.92;83.45;101215.59;5058796;28;45355;-75
2022/07/01 00:35:24;;;;;;;;;1.00;1.00;;;;;14.83;83.71;101217.59;5058285;28;45454;-75
2022/07/01 00:37:49;;;;;;;;;0.67;0.33;;;;;14.84;83.91;101224.59;5058586;28;45761;-75
2022/07/01 00:40:14;;;;;;;;;1.67;1.00;;;;;14.79;83.89;101228.84;5058801;28;45406;-75
2022/07/01 00:42:41;;;;;;;;;1.00;0.00;;;;;14.86;83.98;101240.44;5059271;28;45287;-75
2022/07/01 00:45:09;;;;;;;;;0.67;0.67;;;;;14.81;84.24;101238.34;5058864;28;45543;-75
2022/07/01 00:47:39;;;;;;;;;0.33;0.33;;;;;14.78;84.14;101236.03;5058266;28;45539;-75
2022/07/01 00:50:12;;;;;;;;;1.00;1.00;;;;;14.82;84.25;101241.84;5058924;28;45207;-75
2022/07/01 00:52:38;;;;;;;;;1.00;0.33;;;;;14.76;84.08;101238.88;5058625;28;45294;-75
2022/07/01 00:55:07;;;;;;;;;0.00;0.00;;;;;14.79;84.38;101248.41;5054145;28;46426;-75
2022/07/01 00:57:43;;;;;;;;;1.33;1.33;;;;;14.73;84.43;101239.25;5032832;28;47084;-75
2022/07/01 01:00:11;;;;;;;;;0.33;0.33;;;;;14.73;84.12;101246.47;5058935;28;45385;-74
2022/07/01 01:02:37;;;;;;;;;1.33;1.33;;;;;14.72;84.45;101255.50;5040198;28;45364;-75
2022/07/01 01:05:07;;;;;;;;;1.33;1.33;;;;;14.71;84.62;101256.53;5058365;28;45339;-75
2022/07/01 01:07:32;;;;;;;;;1.67;1.00;;;;;14.67;84.17;101253.41;5058497;28;45712;-74
2022/07/01 01:09:59;;;;;;;;;1.00;1.00;;;;;14.69;84.38;101259.38;5057891;28;45331;-75
2022/07/01 01:12:26;;;;;;;;;1.00;1.00;;;;;14.68;84.53;101262.25;5058874;28;45321;-75
2022/07/01 01:14:51;;;;;;;;;0.67;0.67;;;;;14.71;84.76;101273.41;5058407;28;45391;-75
2022/07/01 01:17:19;;;;;;;;;1.33;1.33;;;;;14.66;84.27;101265.09;5065062;28;45359;-74
2022/07/01 01:19:44;;;;;;;;;1.00;1.00;;;;;14.67;84.44;101277.50;5058490;28;45223;-75
2022/07/01 01:22:14;;;;;;;;;1.33;1.33;;;;;14.68;84.39;101279.13;5058343;28;45340;-74
2022/07/01 01:24:41;;;;;;;;;3.33;2.00;;;;;14.65;84.30;101274.16;5048804;28;46216;-75
2022/07/01 01:27:07;;;;;;;;;1.00;1.00;;;;;14.63;84.22;101278.84;5040123;28;47329;-75
2022/07/01 01:29:34;;;;;;;;;2.00;2.00;;;;;14.65;84.27;101276.84;5058330;28;45343;-74
2022/07/01 01:32:00;;;;;;;;;2.00;2.00;;;;;14.64;84.47;101277.88;5053125;28;45431;-74
2022/07/01 01:34:26;;;;;;;;;0.67;0.67;;;;;14.66;84.64;101280.34;5058383;28;45235;-75
2022/07/01 01:36:51;;;;;;;;;0.33;0.33;;;;;14.62;84.31;101274.53;5058041;28;45379;-75
2022/07/01 01:39:17;;;;;;;;;0.67;0.67;;;;;14.60;84.45;101269.38;5058109;28;45372;-74
2022/07/01 01:41:43;;;;;;;;;1.33;1.33;;;;;14.66;84.51;101278.47;5049292;28;45367;-74
2022/07/01 01:44:09;;;;;;;;;2.33;1.67;;;;;14.66;84.17;101283.03;5058052;28;45427;-75
2022/07/01 01:46:34;;;;;;;;;0.33;0.33;;;;;14.65;84.20;101282.19;5047837;28;47176;-74
2022/07/01 01:49:00;;;;;;;;;1.00;1.00;;;;;14.58;83.95;101270.59;5043299;28;45322;-75
2022/07/01 01:51:26;;;;;;;;;1.00;1.00;;;;;14.56;84.20;101269.94;5061767;28;45388;-75
2022/07/01 01:53:51;;;;;;;;;0.00;0.00;;;;;14.57;84.21;101279.59;5043042;28;47706;-75
2022/07/01 01:56:17;;;;;;;;;1.00;1.00;;;;;14.52;83.73;101274.84;5061099;28;45445;-77
2022/07/01 01:58:45;;;;;;;;;0.00;0.00;;;;;14.57;84.08;101287.63;5048226;28;45309;-75
2022/07/01 02:01:12;;;;;;;;;1.00;1.00;;;;;14.52;83.72;101288.22;5043310;28;45270;-75
2022/07/01 02:03:38;;;;;;;;;1.33;1.00;;;;;14.52;84.05;101283.69;5061242;28;45415;-75
2022/07/01 02:06:05;;;;;;;;;1.00;1.00;;;;;14.52;84.03;101283.69;5061152;28;45379;-75
2022/07/01 02:08:30;;;;;;;;;3.00;2.00;;;;;14.42;84.00;101275.13;5060735;28;45254;-75
2022/07/01 02:10:56;;;;;;;;;0.33;0.33;;;;;14.49;84.04;101289.41;5043197;28;45529;-75
2022/07/01 02:13:21;;;;;;;;;2.67;2.67;;;;;14.41;83.71;101283.31;5060935;28;45461;-75
2022/07/01 02:15:46;;;;;;;;;1.00;1.00;;;;;14.37;84.00;101283.69;5062319;28;45589;-74
2022/07/01 02:18:12;;;;;;;;;2.00;1.67;;;;;14.34;84.05;101284.06;5066223;28;45378;-75
2022/07/01 02:20:37;;;;;;;;;2.00;2.00;;;;;14.31;83.49;101283.63;5039805;28;45324;-75
2022/07/01 02:23:02;;;;;;;;;2.00;1.33;;;;;14.28;83.77;101287.50;5053099;28;47022;-75
2022/07/01 02:25:28;;;;;;;;;2.00;2.00;;;;;14.25;83.90;101288.69;5042623;28;48478;-75
2022/07/01 02:27:53;;;;;;;;;1.67;1.67;;;;;14.27;84.06;101283.16;5049806;28;45305;-74
2022/07/01 02:30:18;;;;;;;;;1.67;1.00;;;;;14.21;84.14;101295.41;5060963;28;45399;-75
2022/07/01 02:32:44;;;;;;;;;1.67;1.33;;;;;14.20;84.11;101293.78;5047507;28;46249;-75
2022/07/01 02:35:10;;;;;;;;;1.00;1.00;;;;;14.19;84.19;101300.13;5060731;28;46647;-75
2022/07/01 02:37:35;;;;;;;;;2.00;2.00;;;;;14.15;84.24;101293.47;5045552;28;45562;-75
2022/07/01 02:40:02;;;;;;;;;2.00;1.00;;;;;14.17;84.13;101296.81;5060796;28;45520;-75
2022/07/01 02:42:27;;;;;;;;;1.00;1.00;;;;;14.15;84.23;101304.19;5060617;28;45574;-74
2022/07/01 02:44:54;;;;;;;;;1.33;1.33;;;;;14.17;84.41;101307.50;5060478;28;45782;-75
2022/07/01 02:47:21;;;;;;;;;1.67;1.00;;;;;14.09;84.17;101297.72;5060176;28;45363;-75
2022/07/01 02:49:46;;;;;;;;;3.67;3.67;;;;;14.09;84.27;101299.56;5042521;28;45308;-75
2022/07/01 02:52:11;;;;;;;;;2.33;2.33;;;;;14.05;84.54;101295.59;5053362;28;45939;-75
2022/07/01 02:54:37;;;;;;;;;2.00;2.00;;;;;14.04;84.42;101294.78;5042342;28;46889;-75
2022/07/01 02:57:03;;;;;;;;;1.67;1.00;;;;;14.05;84.76;101301.78;5060092;28;45291;-74
2022/07/01 02:59:28;;;;;;;;;2.00;1.00;;;;;14.03;84.71;101303.81;5042423;28;45376;-75
2022/07/01 03:01:54;;;;;;;;;2.00;2.00;;;;;14.04;84.74;101313.50;5060117;28;45299;-75
2022/07/01 03:04:19;;;;;;;;;3.00;2.00;;;;;13.98;85.07;101306.22;5060312;28;46413;-74
2022/07/01 03:06:45;;;;;;;;;1.67;1.67;;;;;14.02;85.33;101310.19;5060013;28;45482;-75
2022/07/01 03:09:10;;;;;;;;;4.67;2.00;;;;;14.00;85.00;101307.69;5042128;28;45434;-75
2022/07/01 03:11:36;;;;;;;;;3.00;2.00;;;;;14.03;84.97;101311.81;5060105;28;45264;-75
2022/07/01 03:14:01;;;;;;;;;1.00;1.00;;;;;14.03;84.98;101314.50;5060080;28;45320;-74
2022/07/01 03:16:26;;;;;;;;;1.00;1.00;;;;;14.00;85.06;101304.16;5066974;28;45476;-74
2022/07/01 03:18:52;;;;;;;;;1.33;1.00;;;;;14.03;84.78;101313.69;5060414;28;45340;-75
2022/07/01 03:21:17;;;;;;;;;1.00;1.00;;;;;14.01;84.52;101325.38;5060248;28;45237;-75
2022/07/01 03:23:42;;;;;;;;;2.00;2.00;;;;;14.00;84.44;101331.72;5059608;28;48441;-75
2022/07/01 03:26:08;;;;;;;;;1.33;1.33;;;;;13.97;84.79;101320.56;5060018;28;45383;-74
2022/07/01 03:28:34;;;;;;;;;1.00;1.00;;;;;13.98;84.82;101323.06;5059997;28;45307;-74
2022/07/01 03:30:59;;;;;;;;;2.00;1.00;;;;;13.97;84.61;101326.75;5059839;28;45446;-74
2022/07/01 03:33:25;;;;;;;;;1.00;1.00;;;;;13.95;84.88;101325.28;5059973;28;46627;-74
2022/07/01 03:35:50;;;;;;;;;2.00;2.00;;;;;13.88;84.80;101320.66;5059942;28;45312;-75
2022/07/01 03:38:16;;;;;;;;;1.33;1.33;;;;;13.95;84.94;101328.75;5060089;28;45252;-74
2022/07/01 03:40:41;;;;;;;;;1.67;1.67;;;;;13.99;84.93;101342.59;5055627;28;45420;-75
2022/07/01 03:43:07;;;;;;;;;3.00;3.00;;;;;13.92;84.85;101331.81;5049285;28;46208;-75
2022/07/01 03:45:32;;;;;;;;;3.33;2.00;;;;;13.87;85.14;101334.19;5059315;28;45232;-74
2022/07/01 03:47:58;;;;;;;;;2.00;2.00;;;;;13.98;84.75;101351.66;5059745;28;45310;-74
2022/07/01 03:50:24;;;;;;;;;4.00;2.33;;;;;13.95;84.46;101344.78;5059576;28;45354;-74
2022/07/01 03:54:29;;;;;;;;;3.33;3.00;;;;;13.94;84.67;101345.81;5059303;28;45346;-74
2022/07/01 03:55:39;;;;;;;;;3.33;3.33;;;;;13.89;84.85;101337.53;5059360;28;45264;-74
2022/07/01 03:58:05;;;;;;;;;4.00;3.00;;;;;13.87;84.67;101336.88;5059483;28;45260;-75
2022/07/01 04:00:35;;;;;;;;;2.00;2.00;;;;;13.79;85.02;101328.91;5046856;28;47147;-74
2022/07/01 04:03:01;;;;;;;;;2.00;2.00;;;;;13.87;85.05;101343.06;5041207;28;47462;-74
2022/07/01 04:05:27;;;;;;;;;2.33;2.33;;;;;13.84;84.92;101334.56;5059621;28;45293;-74
2022/07/01 04:07:52;;;;;;;;;2.00;2.00;;;;;13.81;84.88;101332.25;5059176;28;45363;-76
2022/07/01 04:10:18;;;;;;;;;3.00;3.00;;;;;13.83;84.94;101339.06;5058137;28;45427;-75
2022/07/01 04:12:43;;;;;;;;;3.33;2.00;;;;;13.81;84.64;101337.59;5058891;28;45509;-74
2022/07/01 04:15:09;;;;;;;;;2.33;2.00;;;;;13.80;85.06;101341.28;5059005;28;45438;-75
2022/07/01 04:17:35;;;;;;;;;4.67;3.00;;;;;13.84;85.08;101342.56;5065921;28;45451;-75
2022/07/01 04:20:01;;;;;;;;;2.33;2.00;;;;;13.78;84.85;101335.28;5058926;28;45311;-75
2022/07/01 04:22:32;;;;;;;;;3.00;3.00;;;;;13.78;84.96;101340.63;5037299;28;48606;-75
2022/07/01 04:24:59;;;;;;;;;3.00;1.33;;;;;13.85;85.06;101349.56;5052929;28;45327;-74
2022/07/01 04:27:24;;;;;;;;;2.67;2.67;;;;;13.80;85.60;101350.09;5057466;28;45339;-75
2022/07/01 04:29:49;;;;;;;;;3.00;3.00;;;;;13.83;85.39;101354.28;5038917;28;45520;-75
2022/07/01 04:32:14;;;;;;;;;3.67;3.00;;;;;13.84;85.25;101359.44;5029530;28;46586;-74
2022/07/01 04:34:40;;;;;;;;;3.00;3.00;;;;;13.80;85.89;101341.28;5059019;28;45315;-74
2022/07/01 04:37:05;;;;;;;;;4.00;3.00;;;;;13.88;85.75;101360.75;5059326;28;45308;-75
2022/07/01 04:39:30;;;;;;;;;3.67;3.67;;;;;13.84;86.03;101353.25;5058757;28;45319;-74
2022/07/01 04:41:59;;;;;;;;;1.67;1.67;;;;;13.87;85.73;101350.22;5059019;28;46295;-74
2022/07/01 04:44:25;;;;;;;;;2.00;2.00;;;;;13.87;85.71;101358.25;5058799;28;45512;-74
2022/07/01 04:46:50;;;;;;;;;2.67;2.00;;;;;13.88;85.57;101362.56;5058847;28;45300;-75
2022/07/01 04:49:16;;;;;;;;;3.00;3.00;;;;;13.89;85.85;101361.59;5058908;28;45437;-74
2022/07/01 04:51:41;;;;;;;;;3.67;3.67;;;;;13.95;85.79;101379.53;5049752;28;46650;-74
2022/07/01 04:54:07;;;;;;;;;4.33;4.33;;;;;13.92;86.18;101371.06;5052809;28;45445;-75
2022/07/01 04:56:33;;;;;;;;;2.33;1.67;;;;;14.00;85.99;101374.50;5046165;28;45344;-74
2022/07/01 04:59:00;;;;;;;;;3.67;3.00;;;;;14.01;86.00;101365.44;5045087;28;45470;-74
2022/07/01 05:01:26;;;;;;;;;3.67;3.67;;;;;14.04;85.94;101368.78;5024952;28;47015;-75
2022/07/01 05:03:51;;;;;;;;;2.33;2.33;;;;;14.01;85.65;101364.66;5038088;28;45314;-74
2022/07/01 05:06:17;;;;;;;;;4.00;3.67;;;;;14.03;85.99;101372.47;5041070;28;45388;-75
2022/07/01 05:08:43;;;;;;;;;3.33;2.33;;;;;14.08;86.22;101372.75;5033823;28;47079;-76
2022/07/01 05:11:08;;;;;;;;;3.67;3.67;;;;;14.16;86.27;101378.03;5057286;28;45445;-75
2022/07/01 05:13:34;;;;;;;;;3.00;3.00;;;;;14.14;86.49;101375.53;5058807;28;45279;-77
2022/07/01 05:16:00;;;;;;;;;7.00;5.00;;;;;14.25;86.96;101384.94;5061712;28;45341;-75
2022/07/01 05:23:53;;;;;;;;;7.33;7.00;;;;;14.38;86.45;101396.84;5061869;28;45287;-79
2022/07/01 05:26:18;;;;;;;;;3.00;3.00;;;;;14.41;86.28;101393.81;5043755;28;45452;-77
2022/07/01 05:28:44;;;;;;;;;6.00;4.00;;;;;14.44;86.04;101397.94;5061963;28;45528;-76
2022/07/01 05:31:10;;;;;;;;;4.67;4.67;;;;;14.50;86.15;101406.09;5061525;28;45524;-76
2022/07/01 05:33:36;;;;;;;;;4.00;3.67;;;;;14.55;86.03;101410.88;5061614;28;45336;-75
2022/07/01 05:36:01;;;;;;;;;5.00;5.00;;;;;14.59;86.05;101408.66;5062122;28;45457;-76
2022/07/01 05:38:27;;;;;;;;;4.33;4.33;;;;;14.58;86.06;101410.47;5061656;28;45303;-75
2022/07/01 05:40:53;;;;;;;;;5.33;5.33;;;;;14.62;86.11;101402.94;5060250;28;45503;-77
2022/07/01 05:43:19;;;;;;;;;4.67;4.67;;;;;14.72;86.17;101419.53;5048949;28;45369;-77
2022/07/01 05:45:44;;;;;;;;;6.33;3.67;;;;;14.75;86.38;101408.47;5041695;28;45528;-77
2022/07/01 05:48:09;;;;;;;;;4.00;4.00;;;;;14.79;86.54;101402.78;5059331;28;45602;-77
2022/07/01 05:50:35;;;;;;;;;6.00;6.00;;;;;14.87;86.20;101410.69;5041804;28;47400;-77
2022/07/01 05:53:00;;;;;;;;;5.00;5.00;;;;;14.92;86.06;101404.78;5043044;28;45501;-76
2022/07/01 05:55:26;;;;;;;;;6.00;6.00;;;;;14.96;85.74;101414.09;5061406;28;45382;-77
2022/07/01 05:57:52;;;;;;;;;8.67;7.00;;;;;15.00;85.51;101408.16;5061377;28;45403;-78
2022/07/01 06:00:17;;;;;;;;;4.67;4.33;;;;;15.02;85.56;101410.66;5061301;28;46997;-76
2022/07/01 06:02:43;;;;;;;;;6.33;6.33;;;;;15.07;85.73;101404.75;5061681;28;45265;-76
2022/07/01 06:05:08;;;;;;;;;6.67;6.67;;;;;15.18;85.63;101411.47;5056588;28;46894;-77
2022/07/01 06:07:34;;;;;;;;;7.00;7.00;;;;;15.18;85.55;101400.75;5045724;28;45295;-77
2022/07/01 06:09:59;;;;;;;;;9.33;9.33;;;;;15.25;85.69;101410.53;5060980;28;45968;-78
2022/07/01 06:12:24;;;;;;;;;9.33;9.00;;;;;15.33;85.56;101414.94;5054077;28;45522;-77
2022/07/01 06:14:50;;;;;;;;;9.00;8.00;;;;;15.38;85.12;101417.03;5027980;28;45353;-76
2022/07/01 06:17:16;;;;;;;;;11.67;9.33;;;;;15.43;85.04;101413.78;5066232;28;45170;-77
2022/07/01 06:19:42;;;;;;;;;9.00;7.33;;;;;15.40;84.61;101405.13;5059678;28;45680;-77
2022/07/01 06:22:08;;;;;;;;;8.00;8.00;;;;;15.50;84.50;101412.00;5060936;28;45367;-76
2022/07/01 06:24:33;;;;;;;;;9.00;9.00;;;;;15.55;84.48;101412.28;5061049;28;45465;-77
2022/07/01 06:26:59;;;;;;;;;10.00;10.00;;;;;15.59;84.84;101410.88;5060771;28;45442;-77
2022/07/01 06:29:27;;;;;;;;;6.67;6.67;;;;;15.62;84.58;101415.84;5060819;28;47171;-77
2022/07/01 06:31:52;;;;;;;;;10.00;9.67;;;;;15.69;84.46;101421.28;5059634;28;45287;-77
2022/07/01 06:34:18;;;;;;;;;9.00;9.00;;;;;15.72;84.12;101422.75;5060871;28;45225;-76
2022/07/01 06:36:43;;;;;;;;;7.33;7.33;;;;;15.78;83.81;101420.09;5060937;28;45271;-75
2022/07/01 06:39:08;;;;;;;;;11.00;10.00;;;;;15.85;83.94;101422.00;5060483;28;45289;-75
2022/07/01 06:41:34;;;;;;;;;7.33;7.00;;;;;15.89;83.80;101416.09;5058914;28;45341;-76
2022/07/01 06:44:01;;;;;;;;;10.00;8.00;;;;;15.97;83.56;101417.84;5060782;28;45253;-75
2022/07/01 06:46:28;;;;;;;;;8.00;8.00;;;;;16.06;83.15;101428.41;5056234;28;47339;-75
2022/07/01 06:48:55;;;;;;;;;5.67;5.67;;;;;16.07;82.90;101414.81;5060657;28;46174;-75
2022/07/01 06:51:21;;;;;;;;;6.00;6.00;;;;;16.18;82.55;101426.84;5060352;28;45423;-76
2022/07/01 06:53:46;;;;;;;;;4.33;4.33;;;;;16.20;82.38;101419.47;5042382;28;45367;-76
2022/07/01 06:56:15;;;;;;;;;6.00;4.33;;;;;16.21;81.65;101421.09;5060256;28;45277;-76
2022/07/01 06:58:40;;;;;;;;;4.00;4.00;;;;;16.25;80.85;101425.03;5061296;28;46216;-78
2022/07/01 07:01:06;;;;;;;;;4.00;4.00;;;;;16.33;81.10;101434.81;5039381;28;45339;-75
2022/07/01 07:03:32;;;;;;;;;5.00;3.00;;;;;16.36;79.42;101422.84;5055787;28;45527;-76
2022/07/01 07:06:00;;;;;;;;;3.00;3.00;;;;;16.41;78.97;101420.41;5034088;28;46260;-76
2022/07/01 07:08:25;;;;;;;;;3.00;2.00;;;;;16.50;78.81;101427.28;5059652;28;46239;-76
2022/07/01 07:10:51;;;;;;;;;6.67;5.00;;;;;16.53;79.91;101421.50;5060248;28;45486;-76
2022/07/01 07:13:16;;;;;;;;;4.67;4.00;;;;;16.68;79.45;101435.84;5060280;28;45422;-75
2022/07/01 07:15:41;;;;;;;;;2.00;2.00;;;;;16.74;78.94;101430.50;5047119;28;46250;-75
2022/07/01 07:18:07;;;;;;;;;3.00;3.00;;;;;16.82;77.80;101431.38;5065990;28;45764;-76
2022/07/01 07:20:33;;;;;;;;;4.33;4.33;;;;;16.86;77.88;101433.47;5061035;28;45340;-76
2022/07/01 07:22:59;;;;;;;;;3.00;3.00;;;;;16.78;77.31;101409.44;5052121;28;45411;-74
2022/07/01 07:25:24;;;;;;;;;2.00;2.00;;;;;16.99;77.37;101421.09;5061100;28;45395;-76
2022/07/01 07:27:50;;;;;;;;;2.33;2.33;;;;;16.95;76.90;101409.94;5053985;28;46079;-76
2022/07/01 07:30:16;;;;;;;;;3.00;3.00;;;;;17.07;76.52;101420.13;5061417;28;50430;-76
2022/07/01 07:32:41;;;;;;;;;2.00;2.00;;;;;17.23;76.91;101425.16;5061298;28;45419;-75
2022/07/01 07:35:08;;;;;;;;;1.33;1.00;;;;;17.30;75.44;101419.78;5060469;28;45486;-75
2022/07/01 07:37:33;;;;;;;;;1.00;1.00;;;;;17.38;75.13;101426.84;5062817;28;46834;-76
2022/07/01 07:40:00;;;;;;;;;1.00;1.00;;;;;17.46;74.78;101423.97;5050086;28;45320;-76
2022/07/01 07:42:26;;;;;;;;;2.00;2.00;;;;;17.51;74.73;101424.16;5045733;28;45371;-77
2022/07/01 07:44:51;;;;;;;;;5.00;3.00;;;;;17.59;74.01;101422.31;5053010;28;46033;-76
2022/07/01 07:47:17;;;;;;;;;2.00;2.00;;;;;17.66;72.63;101424.00;5032885;28;47208;-77
2022/07/01 07:49:42;;;;;;;;;2.00;2.00;;;;;17.73;71.70;101421.31;5066412;28;45311;-77
2022/07/01 07:52:07;;;;;;;;;2.67;2.67;;;;;17.71;72.50;101412.63;5056559;28;44876;-76
2022/07/01 07:54:33;;;;;;;;;1.00;1.00;;;;;17.78;71.05;101426.09;5064600;28;45315;-76
2022/07/01 07:56:59;;;;;;;;;1.00;1.00;;;;;17.80;69.26;101432.06;5044140;28;48166;-76
2022/07/01 07:59:24;;;;;;;;;1.00;1.00;;;;;17.77;70.00;101419.03;5060234;28;45320;-75
2022/07/01 08:01:49;;;;;;;;;1.00;1.00;;;;;17.79;70.20;101422.34;5041775;28;45320;-75
2022/07/01 08:04:15;;;;;;;;;1.00;1.00;;;;;17.82;67.33;101434.53;5060308;28;45443;-77
2022/07/01 08:06:40;;;;;;;;;1.00;1.00;;;;;17.79;68.84;101408.91;5052709;28;46474;-77
2022/07/01 08:09:06;;;;;;;;;2.00;2.00;;;;;17.88;68.90;101415.75;5052188;28;45454;-76
2022/07/01 08:11:31;;;;;;;;;1.00;1.00;;;;;17.98;69.83;101425.22;5059299;28;45425;-76
2022/07/01 08:13:58;;;;;;;;;0.67;0.67;;;;;17.98;66.80;101412.63;5051273;28;45470;-76
2022/07/01 08:16:24;;;;;;;;;0.33;0.33;;;;;18.04;67.66;101422.56;5065151;28;45409;-77
2022/07/01 08:18:49;;;;;;;;;2.00;2.00;;;;;18.09;66.99;101418.41;5063832;28;45452;-76
2022/07/01 08:21:15;;;;;;;;;1.00;1.00;;;;;18.15;66.16;101423.00;5063258;28;45415;-76
2022/07/01 08:23:40;;;;;;;;;1.00;1.00;;;;;18.17;65.29;101424.44;5029978;28;46306;-76
2022/07/01 08:26:05;;;;;;;;;0.00;0.00;;;;;18.22;63.63;101431.03;5056729;28;46757;-77
2022/07/01 08:28:31;;;;;;;;;1.00;1.00;;;;;18.24;60.22;101429.81;5046108;28;45664;-77
2022/07/01 08:30:56;;;;;;;;;0.00;0.00;;;;;18.26;63.26;101427.72;5053362;28;45494;-77
2022/07/01 08:33:21;;;;;;;;;0.00;0.00;;;;;18.28;62.91;101425.66;5061001;28;45427;-76
2022/07/01 08:35:47;;;;;;;;;0.67;0.67;;;;;18.34;62.53;101432.06;5059526;28;47836;-76
2022/07/01 08:38:12;;;;;;;;;0.00;0.00;;;;;18.39;62.71;101439.53;5061662;28;45237;-76
2022/07/01 08:40:38;;;;;;;;;3.33;1.00;;;;;18.46;62.50;101445.72;5056347;28;45853;-76
2022/07/01 08:43:05;;;;;;;;;1.00;1.00;;;;;18.50;61.54;101455.00;5030380;28;47336;-76
2022/07/01 08:45:34;;;;;;;;;1.67;0.00;;;;;18.50;60.59;101441.56;5060941;28;45555;-76
2022/07/01 08:48:00;;;;;;;;;1.67;0.33;;;;;18.57;61.70;101444.25;5062295;28;45430;-76
2022/07/01 08:50:37;;;;;;;;;1.00;1.00;;;;;18.60;60.65;101443.00;5061580;28;45368;-76
2022/07/01 08:53:03;;;;;;;;;2.00;1.00;;;;;18.63;60.70;101446.09;5042410;28;46004;-76
2022/07/01 08:55:28;;;;;;;;;1.00;1.00;;;;;18.67;60.35;101457.25;5062618;28;45276;-76
2022/07/01 08:57:54;;;;;;;;;0.67;0.67;;;;;18.64;59.98;101455.81;5064112;28;45328;-76
2022/07/01 09:00:20;;;;;;;;;0.33;0.00;;;;;18.62;59.30;101463.25;5047460;28;44765;-77
2022/07/01 09:02:58;;;;;;;;;0.00;0.00;;;;;18.66;58.77;101466.38;5065179;28;45508;-77
2022/07/01 09:05:26;;;;;;;;;2.33;0.67;;;;;18.66;59.86;101458.31;5064678;28;46523;-76
2022/07/01 09:07:56;;;;;;;;;0.00;0.00;;;;;18.75;59.83;101448.13;5064693;28;44686;-76
2022/07/01 09:10:23;;;;;;;;;1.00;1.00;;;;;18.89;59.38;101452.41;5050340;28;45355;-76
2022/07/01 09:12:48;;;;;;;;;1.00;1.00;;;;;19.04;59.10;101464.81;5064681;28;45367;-76
2022/07/01 09:15:32;;;;;;;;;1.00;1.00;;;;;19.16;59.31;101471.19;5042633;28;48180;-76
2022/07/01 09:18:09;;;;;;;;;2.33;1.00;;;;;19.29;57.68;101470.31;5071875;28;45432;-76
2022/07/01 09:20:39;;;;;;;;;1.00;1.00;;;;;19.30;56.95;101453.09;5033278;28;45388;-77
2022/07/01 09:23:13;;;;;;;;;0.00;0.00;;;;;19.39;58.79;101464.47;5065957;28;45263;-76
2022/07/01 09:25:44;;;;;;;;;1.00;0.67;;;;;19.46;58.02;101461.75;5064643;28;45435;-76
2022/07/01 09:28:12;;;;;;;;;1.00;1.00;;;;;19.49;56.46;101472.09;5065375;28;45610;-76
2022/07/01 09:30:39;;;;;;;;;0.00;0.00;;;;;19.44;56.69;101463.81;5064641;28;45363;-76
2022/07/01 09:33:15;;;;;;;;;1.00;1.00;;;;;19.58;57.71;101475.34;5035981;28;47075;-76
2022/07/01 09:35:41;;;;;;;;;0.00;0.00;;;;;19.68;55.32;101470.31;5062255;28;46435;-76
2022/07/01 09:38:10;;;;;;;;;0.00;0.00;;;;;19.80;55.21;101473.13;5048134;28;45261;-75
2022/07/01 09:40:54;;;;;;;;;0.00;0.00;;;;;19.97;54.29;101479.84;5047119;28;45317;-76
2022/07/01 09:43:19;;;;;;;;;0.00;0.00;;;;;20.09;54.11;101466.50;5036042;28;46102;-78
2022/07/01 09:45:56;;;;;;;;;0.00;0.00;;;;;20.10;53.98;101468.13;5046104;28;47188;-76
2022/07/01 09:48:24;;;;;;;;;0.00;0.00;;;;;20.12;53.83;101460.66;5045670;28;45344;-77
2022/07/01 09:50:51;;;;;;;;;0.00;0.00;;;;;20.24;54.43;101472.41;5043536;28;45376;-76
2022/07/01 09:53:17;;;;;;;;;0.00;0.00;;;;;20.31;52.75;101466.94;5065219;28;45213;-77
2022/07/01 09:55:42;;;;;;;;;0.00;0.00;;;;;20.36;50.74;101469.78;5064818;28;45521;-76
2022/07/01 09:58:08;;;;;;;;;2.00;1.00;;;;;20.42;50.97;101482.38;5046262;28;45348;-76
2022/07/01 10:00:37;;;;;;;;;4.00;1.00;;;;;20.52;52.00;101484.59;5055444;28;45316;-76
2022/07/01 10:03:03;;;;;;;;;0.67;0.67;;;;;20.56;51.33;101480.38;5064117;28;45401;-77
2022/07/01 10:05:31;;;;;;;;;0.00;0.00;;;;;20.60;50.83;101474.53;5066376;28;46354;-79
2022/07/01 10:07:57;;;;;;;;;0.33;0.33;;;;;20.62;51.93;101489.47;5054415;28;45657;-78
2022/07/01 10:10:41;;;;;;;;;0.00;0.00;;;;;20.65;51.84;101497.13;5069021;28;44700;-77
2022/07/01 10:13:09;;;;;;;;;1.67;1.67;;;;;20.56;50.66;101480.38;5061207;28;45367;-78
2022/07/01 10:15:35;;;;;;;;;0.00;0.00;;;;;20.59;53.26;101481.81;5061326;28;45539;-78
2022/07/01 10:18:00;;;;;;;;;1.00;1.00;;;;;20.63;51.78;101483.03;5033732;28;45565;-77
2022/07/01 10:20:28;;;;;;;;;1.00;0.67;;;;;20.63;50.37;101482.19;5057800;28;45432;-77
2022/07/01 10:23:05;;;;;;;;;1.00;1.00;;;;;20.68;50.32;101485.88;5060959;28;45369;-77
2022/07/01 10:25:43;;;;;;;;;0.00;0.00;;;;;20.85;50.69;101484.44;5061320;28;45263;-77
2022/07/01 10:28:46;;;;;;;;;0.00;0.00;;;;;21.02;51.15;101474.72;5047069;28;45405;-76
2022/07/01 10:31:18;;;;;;;;;0.00;0.00;;;;;21.35;50.54;101488.00;5061054;28;45277;-76
2022/07/01 10:33:44;;;;;;;;;0.33;0.33;;;;;21.41;49.23;101497.91;5039823;28;47158;-76
2022/07/01 10:36:29;;;;;;;;;0.00;0.00;;;;;21.35;49.39;101499.66;5046158;28;46629;-76
2022/07/01 10:39:00;;;;;;;;;0.33;0.33;;;;;21.34;50.27;101497.19;5038269;28;45789;-76
2022/07/01 10:41:39;;;;;;;;;1.67;1.67;;;;;21.49;50.49;101488.66;5061970;28;45294;-77
2022/07/01 10:44:10;;;;;;;;;1.00;1.00;;;;;21.69;49.04;101475.66;5042288;28;45455;-77
2022/07/01 10:46:45;;;;;;;;;0.00;0.00;;;;;22.05;49.02;101493.88;5042669;28;46361;-76
2022/07/01 10:49:16;;;;;;;;;0.00;0.00;;;;;22.20;47.87;101480.72;5060948;28;45245;-76
2022/07/01 10:51:53;;;;;;;;;0.33;0.33;;;;;22.43;47.32;101479.06;5061491;28;45332;-75
2022/07/01 10:54:55;;;;;;;;;2.00;2.00;;;;;22.50;45.29;101491.63;5040983;28;47630;-75
2022/07/01 10:57:28;;;;;;;;;2.00;2.00;;;;;22.36;45.74;101482.94;4992366;28;45288;-75
2022/07/01 11:00:15;;;;;;;;;3.00;3.00;;;;;22.31;47.12;101484.50;5060772;28;45272;-75
2022/07/01 11:02:40;;;;;;;;;0.33;0.00;;;;;22.11;47.35;101483.97;5041598;28;45407;-75
2022/07/01 11:05:11;;;;;;;;;1.00;1.00;;;;;22.19;47.95;101494.47;5047309;28;45150;-76
2022/07/01 11:07:39;;;;;;;;;4.33;4.00;;;;;22.37;47.13;101482.72;5060484;28;45427;-76
2022/07/01 11:10:10;;;;;;;;;1.00;1.00;;;;;22.49;43.42;101479.16;5060746;28;45476;-75
2022/07/01 11:12:35;;;;;;;;;1.00;1.00;;;;;22.74;47.31;101473.50;5039039;28;45332;-75
2022/07/01 11:15:05;;;;;;;;;1.33;1.00;;;;;22.92;46.96;101477.94;5053993;28;46471;-75
2022/07/01 11:17:31;;;;;;;;;1.33;1.33;;;;;23.02;45.11;101488.16;5043107;28;46450;-76
2022/07/01 11:19:58;;;;;;;;;0.00;0.00;;;;;22.94;44.85;101485.84;5060127;28;45241;-75
2022/07/01 11:22:27;;;;;;;;;0.00;0.00;;;;;22.90;46.10;101487.38;5060712;28;45367;-75
2022/07/01 11:24:53;;;;;;;;;0.33;0.33;;;;;22.83;46.02;101488.34;5059993;28;45463;-75
2022/07/01 11:27:18;;;;;;;;;2.67;2.33;;;;;22.81;46.89;101487.75;5060344;28;45665;-75
2022/07/01 11:29:44;;;;;;;;;6.00;6.00;;;;;22.76;45.15;101500.38;5060050;28;45296;-75